Time;durP1;ratioP1;P1;durP2;ratioP2;P2;SDS_P1;SDS_P2;PMS_P1;PMS_P2;Temp;Humidity;BMP_temperature;BMP_pressure;BME280_temperature;BME280_humidity;BME280_pressure;Samples;Min_cycle;Max_cycle;Signal;HPM_P1;HPM_P2
2022/04/27 00:01:42;;;;;;;8.82;3.67;;;;;;;;;;5005398;28;20054;-90
2022/04/27 00:04:10;;;;;;;8.05;3.47;;;;;;;;;;5024549;28;20115;-90
2022/04/27 00:06:38;;;;;;;8.38;3.53;;;;;;;;;;5026067;28;20069;-90
2022/04/27 00:09:06;;;;;;;16.17;4.25;;;;;;;;;;5000498;28;20042;-90
2022/04/27 00:11:35;;;;;;;7.88;3.35;;;;;;;;;;5001851;28;20396;-90
2022/04/27 00:14:04;;;;;;;9.80;3.50;;;;;;;;;;4991876;28;20833;-90
2022/04/27 00:16:32;;;;;;;6.53;3.17;;;;;;;;;;4983146;28;20057;-90
2022/04/27 00:19:01;;;;;;;8.15;3.75;;;;;;;;;;4984557;28;20073;-90
2022/04/27 00:21:28;;;;;;;9.60;3.53;;;;;;;;;;5017452;28;20056;-90
2022/04/27 00:23:56;;;;;;;8.05;3.78;;;;;;;;;;5005099;28;20053;-90
2022/04/27 00:26:24;;;;;;;9.88;3.55;;;;;;;;;;5020871;28;20072;-90
2022/04/27 00:28:52;;;;;;;5.07;3.03;;;;;;;;;;4998219;28;20059;-90
2022/04/27 00:31:20;;;;;;;7.65;3.40;;;;;;;;;;4995044;28;20147;-90
2022/04/27 00:33:49;;;;;;;10.60;4.07;;;;;;;;;;4997707;28;20045;-90
2022/04/27 00:36:16;;;;;;;9.57;3.90;;;;;;;;;;5017729;28;20029;-90
2022/04/27 00:38:44;;;;;;;10.80;3.40;;;;;;;;;;4977791;28;20069;-90
2022/04/27 00:41:12;;;;;;;8.23;3.35;;;;;;;;;;5002978;28;20037;-90
2022/04/27 00:43:42;;;;;;;6.43;3.20;;;;;;;;;;5015820;28;20042;-90
2022/04/27 00:46:11;;;;;;;7.47;3.63;;;;;;;;;;5005055;28;20846;-90
2022/04/27 00:48:42;;;;;;;10.38;3.55;;;;;;;;;;5000069;28;20050;-90
2022/04/27 00:51:16;;;;;;;9.95;3.35;;;;;;;;;;5005933;28;20041;-90
2022/04/27 00:53:45;;;;;;;12.38;3.63;;;;;;;;;;5019656;28;20854;-90
2022/04/27 00:56:15;;;;;;;7.20;3.58;;;;;;;;;;5000508;28;20144;-90
2022/04/27 00:58:47;;;;;;;7.15;3.63;;;;;;;;;;5015743;28;20056;-90
2022/04/27 01:01:18;;;;;;;8.93;3.83;;;;;;;;;;4991998;28;20042;-90
2022/04/27 01:03:46;;;;;;;6.65;3.60;;;;;;;;;;5014839;28;20040;-90
2022/04/27 01:06:15;;;;;;;8.82;4.03;;;;;;;;;;5005796;28;20049;-90
2022/04/27 01:08:43;;;;;;;9.60;3.95;;;;;;;;;;5001690;28;20049;-90
2022/04/27 01:11:11;;;;;;;8.40;3.60;;;;;;;;;;5017104;28;20033;-90
2022/04/27 01:13:45;;;;;;;11.43;4.70;;;;;;;;;;5021027;28;20056;-90
2022/04/27 01:16:30;;;;;;;8.13;3.88;;;;;;;;;;5002261;28;20041;-90
2022/04/27 01:18:58;;;;;;;7.00;3.22;;;;;;;;;;5038351;28;20100;-90
2022/04/27 01:21:26;;;;;;;11.27;3.67;;;;;;;;;;5024444;28;20052;-90
2022/04/27 01:24:05;;;;;;;9.88;4.10;;;;;;;;;;5015585;28;20144;-90
2022/04/27 01:26:35;;;;;;;9.88;3.67;;;;;;;;;;4980372;28;20050;-90
2022/04/27 01:29:02;;;;;;;9.38;3.95;;;;;;;;;;5033231;28;20045;-90
2022/04/27 01:31:30;;;;;;;6.65;3.60;;;;;;;;;;5001916;28;20450;-90
2022/04/27 01:33:59;;;;;;;16.92;4.03;;;;;;;;;;4987819;28;20472;-90
2022/04/27 01:36:26;;;;;;;6.72;3.78;;;;;;;;;;4989270;28;20049;-90
2022/04/27 01:38:55;;;;;;;10.73;4.55;;;;;;;;;;4983307;28;20057;-90
2022/04/27 01:41:22;;;;;;;9.27;4.03;;;;;;;;;;5009512;28;20047;-90
2022/04/27 01:43:50;;;;;;;6.38;3.97;;;;;;;;;;5002575;28;20057;-90
2022/04/27 01:46:18;;;;;;;11.52;3.72;;;;;;;;;;4996024;28;20053;-90
2022/04/27 01:48:46;;;;;;;8.38;3.80;;;;;;;;;;4995064;28;20045;-90
2022/04/27 01:51:14;;;;;;;7.25;3.78;;;;;;;;;;4980583;28;20048;-90
2022/04/27 01:56:31;;;;;;;11.65;3.75;;;;;;;;;;5001168;28;20071;-90
2022/04/27 01:58:58;;;;;;;6.03;3.30;;;;;;;;;;5008361;28;20051;-90
2022/04/27 02:01:27;;;;;;;8.27;3.20;;;;;;;;;;5015373;28;20037;-90
2022/04/27 02:03:58;;;;;;;9.30;3.58;;;;;;;;;;4979470;28;20068;-90
2022/04/27 02:06:26;;;;;;;8.45;3.88;;;;;;;;;;4996515;28;20052;-90
2022/04/27 02:08:55;;;;;;;13.55;3.47;;;;;;;;;;4999648;28;20909;-91
2022/04/27 02:11:26;;;;;;;7.75;4.20;;;;;;;;;;5005160;28;20140;-90
2022/04/27 02:14:06;;;;;;;9.57;4.15;;;;;;;;;;5024903;28;20052;-90
2022/04/27 02:16:37;;;;;;;8.95;3.70;;;;;;;;;;5017010;28;20052;-90
2022/04/27 02:19:08;;;;;;;10.43;3.45;;;;;;;;;;5020719;28;20041;-90
2022/04/27 02:21:36;;;;;;;11.02;3.78;;;;;;;;;;4994679;28;20035;-90
2022/04/27 02:24:04;;;;;;;9.23;4.03;;;;;;;;;;4982857;28;20045;-90
2022/04/27 02:26:33;;;;;;;7.75;3.35;;;;;;;;;;5025522;28;20144;-91
2022/04/27 02:29:02;;;;;;;7.70;3.53;;;;;;;;;;4983239;28;20045;-90
2022/04/27 02:31:32;;;;;;;9.38;3.50;;;;;;;;;;4995570;28;20069;-90
2022/04/27 02:34:03;;;;;;;7.95;3.63;;;;;;;;;;5015648;28;20103;-90
2022/04/27 02:36:33;;;;;;;8.75;3.72;;;;;;;;;;4997340;28;20053;-90
2022/04/27 02:39:01;;;;;;;7.38;3.42;;;;;;;;;;5015287;28;20037;-90
2022/04/27 02:41:31;;;;;;;9.13;3.55;;;;;;;;;;5002873;28;20547;-90
2022/04/27 02:44:01;;;;;;;12.57;3.75;;;;;;;;;;4996924;28;20057;-90
2022/04/27 02:46:29;;;;;;;10.07;3.88;;;;;;;;;;5002344;28;20041;-90
2022/04/27 02:51:49;;;;;;;7.95;3.65;;;;;;;;;;5002197;28;20136;-90
2022/04/27 02:54:24;;;;;;;9.80;4.07;;;;;;;;;;5021660;28;20492;-90
2022/04/27 02:57:09;;;;;;;10.68;3.88;;;;;;;;;;5000372;28;20041;-90
2022/04/27 02:59:37;;;;;;;15.82;3.83;;;;;;;;;;4990782;28;20056;-90
2022/04/27 03:02:06;;;;;;;11.55;3.80;;;;;;;;;;4984009;28;20076;-90
2022/04/27 03:04:36;;;;;;;8.73;3.92;;;;;;;;;;4989404;28;20048;-90
2022/04/27 03:07:03;;;;;;;8.40;3.95;;;;;;;;;;5001024;28;20562;-90
2022/04/27 03:09:36;;;;;;;8.40;4.35;;;;;;;;;;5001645;28;20657;-90
2022/04/27 03:12:04;;;;;;;8.23;4.18;;;;;;;;;;4983894;28;20072;-90
2022/04/27 03:14:37;;;;;;;7.18;3.83;;;;;;;;;;5001796;28;20038;-90
2022/04/27 03:17:05;;;;;;;8.23;4.20;;;;;;;;;;5015347;28;20038;-90
2022/04/27 03:19:33;;;;;;;6.45;3.65;;;;;;;;;;5019451;28;20088;-90
2022/04/27 03:22:02;;;;;;;12.65;4.40;;;;;;;;;;5015380;28;20552;-90
2022/04/27 03:24:30;;;;;;;7.47;3.80;;;;;;;;;;4999333;28;20041;-90
2022/04/27 03:27:10;;;;;;;13.30;4.28;;;;;;;;;;4992747;28;20099;-90
2022/04/27 03:29:39;;;;;;;10.82;3.90;;;;;;;;;;5013191;28;20049;-90
2022/04/27 03:32:10;;;;;;;8.20;3.85;;;;;;;;;;4997751;28;20107;-90
2022/04/27 03:34:39;;;;;;;9.23;3.95;;;;;;;;;;4998027;28;20061;-90
2022/04/27 03:37:09;;;;;;;8.98;3.88;;;;;;;;;;4974886;28;20136;-90
2022/04/27 03:39:37;;;;;;;6.68;3.80;;;;;;;;;;4980877;28;20077;-91
2022/04/27 03:42:17;;;;;;;8.43;4.72;;;;;;;;;;5006898;28;20033;-90
2022/04/27 03:44:49;;;;;;;10.85;3.97;;;;;;;;;;5016468;28;20052;-90
2022/04/27 03:47:19;;;;;;;10.50;4.07;;;;;;;;;;4983539;28;20042;-90
2022/04/27 03:49:47;;;;;;;13.57;4.10;;;;;;;;;;5015370;28;20049;-90
2022/04/27 03:52:15;;;;;;;11.00;4.57;;;;;;;;;;5013638;28;20040;-90
2022/04/27 03:54:47;;;;;;;7.30;3.95;;;;;;;;;;5000411;28;20555;-90
2022/04/27 03:57:17;;;;;;;10.10;4.28;;;;;;;;;;5015545;28;20049;-90
2022/04/27 03:59:45;;;;;;;9.68;3.78;;;;;;;;;;4985181;28;20140;-90
2022/04/27 04:02:13;;;;;;;10.38;3.65;;;;;;;;;;4999659;28;20080;-90
2022/04/27 04:04:43;;;;;;;10.52;4.43;;;;;;;;;;5000835;28;20132;-90
2022/04/27 04:07:12;;;;;;;11.27;4.78;;;;;;;;;;4988255;28;20045;-90
2022/04/27 04:09:57;;;;;;;8.93;3.65;;;;;;;;;;5003674;28;20052;-90
2022/04/27 04:12:25;;;;;;;7.72;3.63;;;;;;;;;;5002222;28;20048;-90
2022/04/27 04:15:17;;;;;;;9.60;3.70;;;;;;;;;;5016278;28;20038;-90
2022/04/27 04:17:54;;;;;;;11.02;4.13;;;;;;;;;;5024930;28;20129;-90
2022/04/27 04:20:35;;;;;;;6.90;3.85;;;;;;;;;;5044040;28;20051;-90
2022/04/27 04:23:21;;;;;;;7.53;4.22;;;;;;;;;;5033996;28;20033;-90
2022/04/27 04:28:41;;;;;;;9.80;3.53;;;;;;;;;;4997279;28;20420;-90
2022/04/27 04:31:09;;;;;;;14.32;3.85;;;;;;;;;;5001835;28;20567;-90
2022/04/27 04:33:39;;;;;;;7.30;3.85;;;;;;;;;;5001883;28;20954;-90
2022/04/27 04:36:10;;;;;;;11.52;4.05;;;;;;;;;;4985320;28;20041;-90
2022/04/27 04:38:42;;;;;;;11.48;4.10;;;;;;;;;;4981608;28;20068;-90
2022/04/27 04:41:17;;;;;;;10.75;3.95;;;;;;;;;;5020599;28;20041;-90
2022/04/27 04:43:49;;;;;;;10.45;3.40;;;;;;;;;;4990600;28;20962;-90
2022/04/27 04:46:21;;;;;;;11.20;4.07;;;;;;;;;;4984715;28;20148;-90
2022/04/27 04:49:03;;;;;;;9.43;3.78;;;;;;;;;;4998138;28;20131;-90
2022/04/27 04:51:36;;;;;;;7.70;3.90;;;;;;;;;;4998791;28;20042;-90
2022/04/27 04:54:23;;;;;;;7.55;4.03;;;;;;;;;;5021767;28;20069;-90
2022/04/27 04:57:09;;;;;;;12.77;3.42;;;;;;;;;;5026143;28;20637;-91
2022/04/27 04:59:55;;;;;;;;;;;;;;;;;;5019745;28;20050;-92
2022/04/27 05:02:36;;;;;;;8.18;3.50;;;;;;;;;;4997069;28;19921;-91
2022/04/27 05:05:50;;;;;;;12.25;4.00;;;;;;;;;;4989370;28;20064;-91
2022/04/27 05:08:27;;;;;;;8.27;3.75;;;;;;;;;;5016431;28;20390;-91
2022/04/27 05:11:13;;;;;;;8.50;4.10;;;;;;;;;;5009270;28;20388;-91
2022/04/27 05:14:18;;;;;;;12.10;3.35;;;;;;;;;;4978777;28;20046;-91
2022/04/27 05:17:02;;;;;;;11.32;3.72;;;;;;;;;;4959451;28;20162;-91
2022/04/27 05:19:42;;;;;;;7.85;3.47;;;;;;;;;;4979438;28;20061;-91
2022/04/27 05:22:16;;;;;;;19.23;4.43;;;;;;;;;;4977648;28;20081;-93
2022/04/27 05:25:55;;;;;;;11.15;3.97;;;;;;;;;;4990300;28;20415;-92
2022/04/27 05:33:12;;;;;;;8.48;3.97;;;;;;;;;;4955834;28;20044;-92
2022/04/27 05:36:13;;;;;;;9.95;3.58;;;;;;;;;;4938920;29;20565;-92
2022/04/27 05:39:01;;;;;;;11.60;3.67;;;;;;;;;;4936944;28;20410;-89
2022/04/27 05:41:51;;;;;;;8.80;3.60;;;;;;;;;;4952295;28;20130;-89
2022/04/27 05:44:47;;;;;;;6.25;3.40;;;;;;;;;;4937400;29;20529;-89
2022/04/27 05:47:23;;;;;;;11.63;3.45;;;;;;;;;;4947806;28;20069;-89
2022/04/27 05:50:11;;;;;;;9.48;3.78;;;;;;;;;;4940304;28;20051;-89
2022/04/27 05:52:56;;;;;;;7.28;3.42;;;;;;;;;;4918822;28;20055;-89
2022/04/27 05:55:44;;;;;;;8.63;3.75;;;;;;;;;;4913285;29;20071;-89
2022/04/27 05:58:31;;;;;;;9.65;3.30;;;;;;;;;;4890266;29;20056;-90
2022/04/27 06:01:20;;;;;;;10.27;4.32;;;;;;;;;;4896172;29;20056;-90
2022/04/27 06:03:59;;;;;;;7.15;2.95;;;;;;;;;;4904725;28;20143;-90
2022/04/27 06:06:30;;;;;;;11.88;3.45;;;;;;;;;;4940735;28;20125;-90
2022/04/27 06:08:59;;;;;;;6.60;3.20;;;;;;;;;;4942989;28;20050;-89
2022/04/27 06:11:49;;;;;;;9.52;3.65;;;;;;;;;;4933808;28;20047;-89
2022/04/27 06:14:36;;;;;;;13.10;3.20;;;;;;;;;;4944598;28;20058;-90
2022/04/27 06:17:05;;;;;;;6.93;3.03;;;;;;;;;;4970213;28;20156;-90
2022/04/27 06:19:33;;;;;;;8.52;3.15;;;;;;;;;;4940442;28;20059;-90
2022/04/27 06:22:03;;;;;;;6.88;3.08;;;;;;;;;;4947409;28;20130;-90
2022/04/27 06:24:33;;;;;;;8.60;3.28;;;;;;;;;;4939544;28;20047;-89
2022/04/27 06:27:19;;;;;;;10.52;3.25;;;;;;;;;;4970465;28;20046;-90
2022/04/27 06:29:48;;;;;;;5.95;2.97;;;;;;;;;;4945233;28;20118;-90
2022/04/27 06:32:15;;;;;;;7.38;3.90;;;;;;;;;;4982008;28;20641;-90
2022/04/27 06:34:44;;;;;;;8.00;3.08;;;;;;;;;;5003750;28;20661;-90
2022/04/27 06:37:11;;;;;;;10.02;3.08;;;;;;;;;;4990048;28;20135;-90
2022/04/27 06:39:43;;;;;;;7.68;3.15;;;;;;;;;;4999755;28;20056;-90
2022/04/27 06:42:11;;;;;;;9.95;3.17;;;;;;;;;;5011556;28;20041;-90
2022/04/27 06:44:39;;;;;;;10.48;3.10;;;;;;;;;;4999245;28;20049;-90
2022/04/27 06:47:54;;;;;;;10.38;3.45;;;;;;;;;;5000289;28;20037;-91
2022/04/27 06:50:43;;;;;;;11.18;3.00;;;;;;;;;;4993730;28;20374;-91
2022/04/27 06:53:52;;;;;;;5.80;2.75;;;;;;;;;;4922198;29;20054;-91
2022/04/27 06:56:46;;;;;;;6.82;3.30;;;;;;;;;;4916842;29;20059;-91
2022/04/27 06:59:35;;;;;;;8.88;2.90;;;;;;;;;;4918808;29;20047;-91
2022/04/27 07:02:53;;;;;;;8.38;2.97;;;;;;;;;;4949722;29;20051;-91
2022/04/27 07:09:29;;;;;;;6.60;3.03;;;;;;;;;;4935914;29;20075;-91
2022/04/27 07:16:05;;;;;;;11.50;2.72;;;;;;;;;;4937197;29;20035;-91
2022/04/27 07:22:32;;;;;;;7.95;2.42;;;;;;;;;;5091212;28;20045;-90
2022/04/27 07:25:00;;;;;;;8.15;2.90;;;;;;;;;;5057620;28;20051;-89
2022/04/27 07:27:30;;;;;;;10.25;2.58;;;;;;;;;;5043711;28;20131;-89
2022/04/27 07:29:58;;;;;;;7.68;2.50;;;;;;;;;;5056065;28;20408;-90
2022/04/27 07:32:25;;;;;;;6.28;2.67;;;;;;;;;;5055342;28;20054;-90
2022/04/27 07:34:53;;;;;;;8.07;2.55;;;;;;;;;;5073029;28;20040;-90
2022/04/27 07:37:21;;;;;;;8.05;2.40;;;;;;;;;;5070782;28;20442;-89
2022/04/27 07:39:49;;;;;;;7.68;2.30;;;;;;;;;;5072805;28;20086;-90
2022/04/27 07:42:17;;;;;;;6.80;2.50;;;;;;;;;;5072959;28;20127;-89
2022/04/27 07:44:45;;;;;;;5.38;2.45;;;;;;;;;;5085546;28;20048;-90
2022/04/27 07:47:15;;;;;;;9.88;2.55;;;;;;;;;;5073430;28;20111;-89
2022/04/27 07:49:41;;;;;;;3.92;2.13;;;;;;;;;;5092615;28;20040;-89
2022/04/27 07:52:09;;;;;;;6.03;2.30;;;;;;;;;;5083470;28;20036;-89
2022/04/27 07:54:40;;;;;;;6.43;2.08;;;;;;;;;;5079749;28;20542;-89
2022/04/27 07:57:07;;;;;;;5.78;2.08;;;;;;;;;;5051817;28;20054;-90
2022/04/27 07:59:35;;;;;;;5.75;2.00;;;;;;;;;;5067554;28;20043;-89
2022/04/27 08:02:03;;;;;;;4.05;2.17;;;;;;;;;;5059228;28;20036;-90
2022/04/27 08:04:31;;;;;;;9.48;2.63;;;;;;;;;;5061219;28;20153;-89
2022/04/27 08:06:59;;;;;;;8.02;2.42;;;;;;;;;;5072285;28;20528;-89
2022/04/27 08:09:29;;;;;;;8.65;2.45;;;;;;;;;;5062786;28;20159;-90
2022/04/27 08:11:58;;;;;;;6.40;2.58;;;;;;;;;;5042016;28;20062;-90
2022/04/27 08:14:25;;;;;;;7.07;2.42;;;;;;;;;;5072577;28;20036;-90
2022/04/27 08:16:58;;;;;;;7.20;2.13;;;;;;;;;;5058983;28;20040;-90
2022/04/27 08:19:25;;;;;;;8.52;2.60;;;;;;;;;;5057625;28;20044;-90
2022/04/27 08:21:59;;;;;;;9.25;2.90;;;;;;;;;;5045259;28;20047;-90
2022/04/27 08:24:28;;;;;;;7.53;2.40;;;;;;;;;;5077028;28;20119;-90
2022/04/27 08:26:55;;;;;;;9.55;2.78;;;;;;;;;;5076154;28;20036;-90
2022/04/27 08:29:23;;;;;;;8.80;2.55;;;;;;;;;;5060283;28;20680;-90
2022/04/27 08:31:53;;;;;;;5.45;2.67;;;;;;;;;;5085456;28;20032;-90
2022/04/27 08:34:19;;;;;;;6.78;2.60;;;;;;;;;;5058422;28;20126;-88
2022/04/27 08:36:47;;;;;;;8.18;2.40;;;;;;;;;;5061443;28;20054;-89
2022/04/27 08:39:17;;;;;;;8.57;2.75;;;;;;;;;;5038877;28;20044;-89
2022/04/27 08:41:43;;;;;;;8.45;2.90;;;;;;;;;;5058339;28;20036;-89
2022/04/27 08:44:11;;;;;;;4.78;2.20;;;;;;;;;;5059052;28;20086;-90
2022/04/27 08:46:42;;;;;;;7.55;2.28;;;;;;;;;;5090106;28;20474;-90
2022/04/27 08:49:09;;;;;;;8.70;2.22;;;;;;;;;;5058505;28;20492;-90
2022/04/27 08:51:38;;;;;;;9.50;2.78;;;;;;;;;;5054037;28;20043;-90
2022/04/27 08:54:05;;;;;;;7.40;2.17;;;;;;;;;;5089202;28;20119;-90
2022/04/27 08:56:34;;;;;;;6.95;2.72;;;;;;;;;;5072702;28;20049;-90
2022/04/27 08:59:02;;;;;;;5.20;2.35;;;;;;;;;;5057478;28;20094;-90
2022/04/27 09:01:29;;;;;;;7.95;2.97;;;;;;;;;;5075585;28;20042;-90
2022/04/27 09:04:13;;;;;;;6.72;2.72;;;;;;;;;;5069937;28;20051;-90
2022/04/27 09:06:42;;;;;;;5.88;2.65;;;;;;;;;;5055041;28;20052;-90
2022/04/27 09:09:34;;;;;;;6.45;2.70;;;;;;;;;;5062075;28;20058;-90
2022/04/27 09:12:07;;;;;;;7.53;2.65;;;;;;;;;;5077251;28;20042;-90
2022/04/27 09:14:37;;;;;;;8.57;3.00;;;;;;;;;;5068351;28;20044;-90
2022/04/27 09:23:19;;;;;;;7.03;2.85;;;;;;;;;;5066417;28;20511;-89
2022/04/27 09:26:15;;;;;;;6.07;3.30;;;;;;;;;;5080346;28;20637;-90
2022/04/27 09:28:47;;;;;;;8.52;2.78;;;;;;;;;;5074965;28;20040;-89
2022/04/27 09:31:29;;;;;;;8.77;2.90;;;;;;;;;;5059069;28;20451;-89
2022/04/27 09:34:03;;;;;;;6.55;2.60;;;;;;;;;;5062803;28;20473;-89
2022/04/27 09:36:31;;;;;;;7.22;2.80;;;;;;;;;;5073873;28;20551;-89
2022/04/27 09:38:59;;;;;;;7.90;3.40;;;;;;;;;;5059761;28;20046;-90
2022/04/27 09:41:42;;;;;;;8.45;3.47;;;;;;;;;;5072924;28;20040;-90
2022/04/27 09:44:30;;;;;;;5.60;2.85;;;;;;;;;;5042382;28;20040;-90
2022/04/27 09:46:58;;;;;;;8.63;3.33;;;;;;;;;;5073779;28;20042;-89
2022/04/27 09:49:25;;;;;;;9.30;3.63;;;;;;;;;;5078348;28;20040;-89
2022/04/27 09:52:00;;;;;;;5.25;3.17;;;;;;;;;;5081107;28;20043;-89
2022/04/27 09:54:29;;;;;;;6.68;3.45;;;;;;;;;;5058195;28;20048;-89
2022/04/27 09:56:59;;;;;;;10.05;3.17;;;;;;;;;;5059171;28;20048;-89
2022/04/27 09:59:35;;;;;;;6.88;2.75;;;;;;;;;;5076747;28;20044;-90
2022/04/27 10:02:13;;;;;;;7.45;2.90;;;;;;;;;;5061370;28;20074;-90
2022/04/27 10:04:43;;;;;;;8.15;2.90;;;;;;;;;;5054443;28;20048;-89
2022/04/27 10:07:15;;;;;;;7.20;3.05;;;;;;;;;;5087335;28;20471;-90
2022/04/27 10:09:49;;;;;;;10.25;3.00;;;;;;;;;;5061277;28;20824;-90
2022/04/27 10:12:18;;;;;;;7.93;2.60;;;;;;;;;;5070203;28;20866;-90
2022/04/27 10:14:45;;;;;;;5.75;2.55;;;;;;;;;;5043530;28;20072;-90
2022/04/27 10:17:15;;;;;;;7.68;3.00;;;;;;;;;;5073622;28;20036;-90
2022/04/27 10:19:48;;;;;;;6.03;2.60;;;;;;;;;;5075501;28;20124;-89
2022/04/27 10:22:27;;;;;;;7.47;2.75;;;;;;;;;;5062956;28;20048;-89
2022/04/27 10:24:56;;;;;;;6.25;2.83;;;;;;;;;;5043404;28;20035;-90
2022/04/27 10:27:33;;;;;;;8.63;2.85;;;;;;;;;;5075539;28;20043;-90
2022/04/27 10:30:10;;;;;;;9.30;3.72;;;;;;;;;;5039433;28;20048;-90
2022/04/27 10:32:45;;;;;;;6.72;3.20;;;;;;;;;;5053847;28;20040;-90
2022/04/27 10:35:14;;;;;;;8.25;3.08;;;;;;;;;;5071545;28;20127;-90
2022/04/27 10:37:54;;;;;;;7.88;3.40;;;;;;;;;;5076651;28;20097;-90
2022/04/27 10:40:32;;;;;;;8.32;3.35;;;;;;;;;;5060484;28;20433;-90
2022/04/27 10:43:05;;;;;;;10.25;4.25;;;;;;;;;;5069421;28;20406;-90
2022/04/27 10:45:48;;;;;;;6.53;3.83;;;;;;;;;;5089865;28;20047;-90
2022/04/27 10:48:17;;;;;;;6.03;3.38;;;;;;;;;;5074726;28;20496;-90
2022/04/27 10:51:00;;;;;;;5.93;2.75;;;;;;;;;;5097111;28;20480;-90
2022/04/27 10:53:29;;;;;;;8.13;3.17;;;;;;;;;;5056838;28;20039;-90
2022/04/27 10:56:24;;;;;;;6.50;2.80;;;;;;;;;;5037060;28;20062;-89
2022/04/27 10:58:52;;;;;;;7.20;3.05;;;;;;;;;;5071801;28;20048;-89
2022/04/27 11:01:27;;;;;;;6.47;2.92;;;;;;;;;;5075110;28;20058;-89
2022/04/27 11:04:01;;;;;;;10.20;3.35;;;;;;;;;;5052819;28;20070;-90
2022/04/27 11:06:51;;;;;;;6.18;2.78;;;;;;;;;;5056039;28;20048;-89
2022/04/27 11:09:49;;;;;;;6.45;2.90;;;;;;;;;;5090830;28;20043;-89
2022/04/27 11:12:18;;;;;;;8.25;4.80;;;;;;;;;;5049412;28;20136;-90
2022/04/27 11:14:46;;;;;;;9.65;3.53;;;;;;;;;;5078007;28;20039;-90
2022/04/27 11:17:26;;;;;;;6.53;2.55;;;;;;;;;;5073633;28;20040;-90
2022/04/27 11:19:53;;;;;;;5.95;2.60;;;;;;;;;;5068106;28;20508;-89
2022/04/27 11:22:22;;;;;;;8.50;2.50;;;;;;;;;;5043873;28;20082;-89
2022/04/27 11:24:49;;;;;;;7.63;2.78;;;;;;;;;;5074010;28;20063;-90
2022/04/27 11:27:26;;;;;;;7.15;2.75;;;;;;;;;;5062833;28;20212;-90
2022/04/27 11:29:55;;;;;;;7.25;3.00;;;;;;;;;;5044197;28;20106;-90
2022/04/27 11:32:25;;;;;;;5.00;2.90;;;;;;;;;;5080692;28;20396;-90
2022/04/27 11:34:51;;;;;;;4.85;2.80;;;;;;;;;;5056184;28;20036;-90
2022/04/27 11:37:21;;;;;;;7.28;3.22;;;;;;;;;;5050208;28;20051;-90
2022/04/27 11:39:49;;;;;;;5.78;3.00;;;;;;;;;;5053162;28;20071;-90
2022/04/27 11:42:17;;;;;;;5.22;2.80;;;;;;;;;;5060302;28;20040;-89
2022/04/27 11:44:52;;;;;;;4.78;2.75;;;;;;;;;;5074905;28;20784;-90
2022/04/27 11:47:28;;;;;;;7.25;3.13;;;;;;;;;;5075554;28;20502;-90
2022/04/27 11:50:00;;;;;;;7.15;2.97;;;;;;;;;;5069029;28;20052;-90
2022/04/27 11:52:30;;;;;;;7.18;3.00;;;;;;;;;;5074156;28;20048;-90
2022/04/27 11:55:08;;;;;;;3.90;2.45;;;;;;;;;;5039638;28;20071;-90
2022/04/27 11:57:35;;;;;;;5.75;3.17;;;;;;;;;;5089439;28;20052;-90
2022/04/27 12:00:05;;;;;;;5.68;2.85;;;;;;;;;;5077157;28;20043;-89
2022/04/27 12:02:40;;;;;;;6.25;2.90;;;;;;;;;;5091568;28;20063;-90
2022/04/27 12:05:10;;;;;;;5.22;2.92;;;;;;;;;;5076414;28;20086;-90
2022/04/27 12:07:38;;;;;;;5.15;2.90;;;;;;;;;;5095765;28;20487;-89
2022/04/27 12:10:14;;;;;;;7.32;2.60;;;;;;;;;;5056759;28;20085;-89
2022/04/27 12:12:42;;;;;;;8.20;3.45;;;;;;;;;;5063189;28;20050;-89
2022/04/27 12:15:11;;;;;;;7.03;3.22;;;;;;;;;;5039079;28;20506;-89
2022/04/27 12:17:54;;;;;;;5.10;2.67;;;;;;;;;;5062123;28;20135;-90
2022/04/27 12:20:37;;;;;;;9.30;2.78;;;;;;;;;;5075011;28;20117;-89
2022/04/27 12:23:37;;;;;;;6.38;2.95;;;;;;;;;;5069284;28;20055;-90
2022/04/27 12:26:07;;;;;;;4.97;2.80;;;;;;;;;;5072463;28;20043;-90
2022/04/27 12:28:44;;;;;;;7.60;2.50;;;;;;;;;;5081374;28;20040;-89
2022/04/27 12:31:13;;;;;;;5.75;2.92;;;;;;;;;;5059887;28;20046;-90
2022/04/27 12:33:48;;;;;;;6.47;2.80;;;;;;;;;;5060277;28;20040;-90
2022/04/27 12:39:20;;;;;;;6.95;2.83;;;;;;;;;;5084462;28;20038;-90
2022/04/27 12:41:49;;;;;;;6.38;2.85;;;;;;;;;;5061658;28;20060;-90
2022/04/27 12:44:28;;;;;;;4.80;2.75;;;;;;;;;;5077543;28;20434;-90
2022/04/27 12:47:00;;;;;;;6.57;3.03;;;;;;;;;;5044411;28;20043;-90
2022/04/27 12:49:37;;;;;;;8.43;3.65;;;;;;;;;;5080707;28;20085;-90
2022/04/27 12:52:23;;;;;;;7.53;2.67;;;;;;;;;;5054014;28;20053;-90
2022/04/27 12:55:03;;;;;;;6.90;3.13;;;;;;;;;;5073359;28;20064;-90
2022/04/27 12:57:45;;;;;;;7.45;2.70;;;;;;;;;;5069537;28;20867;-90
2022/04/27 13:00:18;;;;;;;4.75;2.60;;;;;;;;;;5044105;28;20484;-90
2022/04/27 13:02:45;;;;;;;8.25;3.03;;;;;;;;;;5073256;28;20048;-90
2022/04/27 13:05:14;;;;;;;6.70;3.00;;;;;;;;;;5059855;28;20046;-89
2022/04/27 13:07:42;;;;;;;6.65;2.90;;;;;;;;;;5079997;28;20115;-90
2022/04/27 13:12:56;;;;;;;6.28;2.70;;;;;;;;;;5050321;28;20044;-86
2022/04/27 13:15:24;;;;;;;4.50;2.83;;;;;;;;;;5059421;28;20131;-86
2022/04/27 13:17:51;;;;;;;6.20;3.10;;;;;;;;;;5059199;28;20040;-86
2022/04/27 13:20:19;;;;;;;5.30;2.70;;;;;;;;;;5064545;28;20044;-88
2022/04/27 13:22:47;;;;;;;6.20;2.90;;;;;;;;;;5055001;28;20070;-88
2022/04/27 13:25:17;;;;;;;7.13;3.00;;;;;;;;;;5067410;28;20034;-89
2022/04/27 13:27:45;;;;;;;4.90;2.85;;;;;;;;;;5058611;28;20040;-89
2022/04/27 13:30:13;;;;;;;5.18;3.10;;;;;;;;;;5073840;28;20160;-89
2022/04/27 13:32:41;;;;;;;4.03;2.80;;;;;;;;;;5075579;28;20097;-89
2022/04/27 13:35:09;;;;;;;6.88;3.55;;;;;;;;;;5087667;28;20036;-89
2022/04/27 13:37:37;;;;;;;9.23;3.13;;;;;;;;;;5082206;28;20488;-89
2022/04/27 13:40:06;;;;;;;11.15;3.55;;;;;;;;;;5062612;28;20047;-87
2022/04/27 13:42:33;;;;;;;6.50;3.03;;;;;;;;;;5076850;28;20046;-87
2022/04/27 13:45:01;;;;;;;5.88;3.80;;;;;;;;;;5058019;28;20028;-87
2022/04/27 13:47:31;;;;;;;5.50;3.03;;;;;;;;;;5049072;28;20479;-87
2022/04/27 13:50:00;;;;;;;6.35;2.70;;;;;;;;;;5055919;28;20576;-88
2022/04/27 13:52:47;;;;;;;5.75;2.55;;;;;;;;;;5070915;28;20055;-87
2022/04/27 13:55:17;;;;;;;6.82;2.95;;;;;;;;;;5037210;28;20357;-87
2022/04/27 13:57:43;;;;;;;6.65;3.13;;;;;;;;;;5050241;28;20041;-88
2022/04/27 14:00:12;;;;;;;5.03;3.03;;;;;;;;;;5054978;28;20035;-88
2022/04/27 14:02:40;;;;;;;5.25;2.60;;;;;;;;;;5059667;28;20049;-87
2022/04/27 14:05:10;;;;;;;5.97;3.05;;;;;;;;;;5054800;28;20032;-87
2022/04/27 14:07:41;;;;;;;4.72;2.55;;;;;;;;;;5036826;28;20070;-88
2022/04/27 14:10:10;;;;;;;6.88;3.22;;;;;;;;;;5055990;28;20143;-88
2022/04/27 14:15:23;;;;;;;5.13;2.90;;;;;;;;;;5054147;28;20072;-88
2022/04/27 14:18:10;;;;;;;9.48;3.30;;;;;;;;;;5071096;28;20055;-87
2022/04/27 14:20:43;;;;;;;5.78;3.30;;;;;;;;;;5056609;28;20104;-87
2022/04/27 14:23:11;;;;;;;4.93;2.90;;;;;;;;;;5069101;28;20056;-87
2022/04/27 14:25:41;;;;;;;6.88;2.85;;;;;;;;;;5024187;28;20099;-87
2022/04/27 14:28:11;;;;;;;4.90;2.80;;;;;;;;;;5062191;28;20075;-87
2022/04/27 14:30:40;;;;;;;4.72;2.70;;;;;;;;;;5049053;28;20535;-87
2022/04/27 14:33:09;;;;;;;10.27;2.90;;;;;;;;;;5054707;28;20464;-88
2022/04/27 14:35:39;;;;;;;7.35;3.00;;;;;;;;;;5070459;28;20531;-88
2022/04/27 14:38:06;;;;;;;5.25;3.20;;;;;;;;;;5050237;28;20134;-87
2022/04/27 14:40:35;;;;;;;7.47;3.28;;;;;;;;;;5023079;28;20439;-87
2022/04/27 14:43:04;;;;;;;7.15;3.08;;;;;;;;;;5054825;28;20036;-88
2022/04/27 14:45:32;;;;;;;7.55;3.80;;;;;;;;;;5066890;28;20064;-87
2022/04/27 14:48:00;;;;;;;6.47;3.42;;;;;;;;;;5036332;28;20040;-87
2022/04/27 14:50:28;;;;;;;7.47;3.30;;;;;;;;;;5061783;28;20051;-87
2022/04/27 14:52:56;;;;;;;5.65;3.30;;;;;;;;;;5062178;28;20481;-87
2022/04/27 14:55:24;;;;;;;5.30;3.05;;;;;;;;;;5039239;28;20037;-86
2022/04/27 14:57:52;;;;;;;5.65;2.95;;;;;;;;;;5051399;28;20064;-86
2022/04/27 15:00:20;;;;;;;6.68;3.38;;;;;;;;;;5064453;28;20094;-87
2022/04/27 15:02:49;;;;;;;6.47;3.20;;;;;;;;;;5050939;28;20052;-87
2022/04/27 15:05:16;;;;;;;6.38;3.15;;;;;;;;;;5044324;28;20040;-87
2022/04/27 15:07:44;;;;;;;6.88;3.17;;;;;;;;;;5051813;28;20056;-87
2022/04/27 15:10:12;;;;;;;7.22;3.10;;;;;;;;;;5054655;28;20511;-86
2022/04/27 15:12:40;;;;;;;6.90;3.47;;;;;;;;;;5035408;28;20049;-86
2022/04/27 15:15:08;;;;;;;8.75;3.75;;;;;;;;;;5046100;28;20119;-87
2022/04/27 15:17:36;;;;;;;6.95;2.85;;;;;;;;;;5033333;28;20768;-86
2022/04/27 15:22:50;;;;;;;5.32;3.25;;;;;;;;;;5072305;28;20040;-86
2022/04/27 15:25:18;;;;;;;6.32;3.80;;;;;;;;;;5056356;28;20041;-86
2022/04/27 15:27:46;;;;;;;8.63;3.55;;;;;;;;;;5038336;28;20048;-86
2022/04/27 15:30:26;;;;;;;5.93;2.67;;;;;;;;;;5036790;28;20427;-86
2022/04/27 15:32:56;;;;;;;8.45;3.50;;;;;;;;;;5059935;28;20054;-86
2022/04/27 15:35:26;;;;;;;9.63;3.60;;;;;;;;;;5045897;28;20056;-86
2022/04/27 15:37:55;;;;;;;7.43;3.30;;;;;;;;;;5074078;28;20033;-86
2022/04/27 15:40:23;;;;;;;5.40;3.13;;;;;;;;;;5047909;28;20043;-86
2022/04/27 15:42:51;;;;;;;6.00;2.58;;;;;;;;;;5045766;28;20139;-86
2022/04/27 15:45:23;;;;;;;9.05;3.25;;;;;;;;;;5049408;28;20065;-86
2022/04/27 15:47:53;;;;;;;7.82;2.70;;;;;;;;;;5051369;28;20048;-87
2022/04/27 15:50:21;;;;;;;8.38;2.60;;;;;;;;;;5063571;28;20060;-87
2022/04/27 15:52:49;;;;;;;6.40;3.40;;;;;;;;;;5066936;28;20033;-87
2022/04/27 15:55:16;;;;;;;5.63;2.80;;;;;;;;;;5055079;28;20120;-87
2022/04/27 15:57:44;;;;;;;6.75;2.85;;;;;;;;;;5070254;28;20052;-86